createdAt,value
2023-04-17T00:00:39.366Z,10.91
2023-04-17T00:01:39.364Z,10.91
2023-04-17T00:02:39.493Z,10.90
2023-04-17T00:03:39.442Z,10.90
2023-04-17T00:04:39.470Z,10.91
2023-04-17T00:05:39.312Z,10.90
2023-04-17T00:06:39.276Z,10.88
2023-04-17T00:07:39.318Z,10.88
2023-04-17T00:08:39.287Z,10.88
2023-04-17T00:09:39.316Z,10.86
2023-04-17T00:10:39.266Z,10.87
2023-04-17T00:11:39.242Z,10.88
2023-04-17T00:12:39.250Z,10.88
2023-04-17T00:13:39.239Z,10.87
2023-04-17T00:14:39.192Z,10.87
2023-04-17T00:15:39.218Z,10.86
2023-04-17T00:16:39.206Z,10.87
2023-04-17T00:17:39.250Z,10.87
2023-04-17T00:18:39.166Z,10.87
2023-04-17T00:19:39.218Z,10.87
2023-04-17T00:20:39.129Z,10.86
2023-04-17T00:21:39.101Z,10.88
2023-04-17T00:22:39.134Z,10.88
2023-04-17T00:23:39.105Z,10.87
2023-04-17T00:24:39.098Z,10.87
2023-04-17T00:25:39.085Z,10.84
2023-04-17T00:26:39.060Z,10.87
2023-04-17T00:27:39.067Z,10.87
2023-04-17T00:28:39.031Z,10.87
2023-04-17T00:29:39.033Z,10.87
2023-04-17T00:30:39.004Z,10.87
2023-04-17T00:31:39.010Z,10.88
2023-04-17T00:32:39.019Z,10.88
2023-04-17T00:33:38.980Z,10.88
2023-04-17T00:34:38.938Z,10.88
2023-04-17T00:35:38.955Z,10.87
2023-04-17T00:36:38.942Z,10.87
2023-04-17T00:37:38.928Z,10.88
2023-04-17T00:38:38.893Z,10.88
2023-04-17T00:39:38.920Z,10.88
2023-04-17T00:40:38.874Z,10.87
2023-04-17T00:41:38.884Z,10.88
2023-04-17T00:42:38.827Z,10.87
2023-04-17T00:43:38.872Z,10.87
2023-04-17T00:44:38.829Z,10.86
2023-04-17T00:45:38.846Z,10.87
2023-04-17T00:46:38.776Z,10.87
2023-04-17T00:47:38.823Z,10.84
2023-04-17T00:48:38.838Z,10.86
2023-04-17T00:49:38.791Z,10.83
2023-04-17T00:50:38.777Z,10.84
2023-04-17T00:51:38.775Z,10.84
2023-04-17T00:52:38.730Z,10.84
2023-04-17T00:53:38.744Z,10.81
2023-04-17T00:54:38.693Z,10.81
2023-04-17T00:55:38.693Z,10.78
2023-04-17T00:56:38.658Z,10.78
2023-04-17T00:57:38.678Z,10.78
2023-04-17T00:58:38.652Z,10.75
2023-04-17T00:59:38.642Z,10.76
2023-04-17T01:00:38.603Z,10.76
2023-04-17T01:01:38.855Z,10.76
2023-04-17T01:02:38.776Z,10.76
2023-04-17T01:03:38.695Z,10.76
2023-04-17T01:04:38.567Z,10.76
2023-04-17T01:05:38.605Z,10.76
2023-04-17T01:06:38.558Z,10.75
2023-04-17T01:07:38.551Z,10.75
2023-04-17T01:08:38.560Z,10.75
2023-04-17T01:09:38.506Z,10.75
2023-04-17T01:10:38.493Z,10.73
2023-04-17T01:11:38.533Z,10.73
2023-04-17T01:12:38.463Z,10.76
2023-04-17T01:13:38.493Z,10.76
2023-04-17T01:14:38.412Z,10.73
2023-04-17T01:15:38.471Z,10.75
2023-04-17T01:16:38.521Z,10.73
2023-04-17T01:17:38.455Z,10.75
2023-04-17T01:18:38.395Z,10.75
2023-04-17T01:19:38.404Z,10.75
2023-04-17T01:20:38.408Z,10.76
2023-04-17T01:21:38.364Z,10.75
2023-04-17T01:22:38.345Z,10.76
2023-04-17T01:23:38.321Z,10.75
2023-04-17T01:24:38.291Z,10.76
2023-04-17T01:25:38.309Z,10.75
2023-04-17T01:26:38.279Z,10.73
2023-04-17T01:27:38.288Z,10.73
2023-04-17T01:28:38.286Z,10.75
2023-04-17T01:29:38.258Z,10.76
2023-04-17T01:30:38.245Z,10.76
2023-04-17T01:31:38.238Z,10.76
2023-04-17T01:32:38.308Z,10.76
2023-04-17T01:33:38.214Z,10.75
2023-04-17T01:34:38.196Z,10.76
2023-04-17T01:35:38.181Z,10.76
2023-04-17T01:36:38.164Z,10.73
2023-04-17T01:37:38.157Z,10.75
2023-04-17T01:38:38.132Z,10.75
2023-04-17T01:39:38.187Z,10.76
2023-04-17T01:40:38.122Z,10.75
2023-04-17T01:41:38.099Z,10.75
2023-04-17T01:42:38.084Z,10.75
2023-04-17T01:43:38.062Z,10.76
2023-04-17T01:44:38.043Z,10.76
2023-04-17T01:45:38.047Z,10.76
2023-04-17T01:46:38.064Z,10.75
2023-04-17T01:47:38.109Z,10.75
2023-04-17T01:48:38.067Z,10.76
2023-04-17T01:49:37.987Z,10.76
2023-04-17T01:50:37.979Z,10.76
2023-04-17T01:51:37.984Z,10.75
2023-04-17T01:52:37.946Z,10.75
2023-04-17T01:53:37.990Z,10.75
2023-04-17T01:54:37.958Z,10.75
2023-04-17T01:55:37.933Z,10.75
2023-04-17T01:56:37.875Z,10.73
2023-04-17T01:57:37.876Z,10.73
2023-04-17T01:58:37.843Z,10.72
2023-04-17T01:59:37.916Z,10.72
2023-04-17T02:00:37.831Z,10.73
2023-04-17T02:01:37.885Z,10.73
2023-04-17T02:02:38.023Z,10.73
2023-04-17T02:03:38.011Z,10.73
2023-04-17T02:04:37.924Z,10.72
2023-04-17T02:05:37.777Z,10.72
2023-04-17T02:06:37.784Z,10.72
2023-04-17T02:07:37.775Z,10.70
2023-04-17T02:08:37.735Z,10.70
2023-04-17T02:09:37.823Z,10.72
2023-04-17T02:10:37.696Z,10.69
2023-04-17T02:11:37.720Z,10.69
2023-04-17T02:12:37.661Z,10.70
2023-04-17T02:13:37.665Z,10.70
2023-04-17T02:14:37.690Z,10.72
2023-04-17T02:15:37.714Z,10.70
2023-04-17T02:16:37.684Z,10.69
2023-04-17T02:17:37.666Z,10.69
2023-04-17T02:18:37.587Z,10.68
2023-04-17T02:19:37.637Z,10.66
2023-04-17T02:20:37.585Z,10.66
2023-04-17T02:21:37.572Z,10.68
2023-04-17T02:22:37.558Z,10.63
2023-04-17T02:23:37.565Z,10.62
2023-04-17T02:24:37.551Z,10.63
2023-04-17T02:25:37.517Z,10.62
2023-04-17T02:26:37.512Z,10.63
2023-04-17T02:27:37.508Z,10.63
2023-04-17T02:28:37.494Z,10.65
2023-04-17T02:29:37.554Z,10.63
2023-04-17T02:30:37.454Z,10.66
2023-04-17T02:31:37.477Z,10.65
2023-04-17T02:32:37.502Z,10.63
2023-04-17T02:33:37.419Z,10.62
2023-04-17T02:34:37.426Z,10.60
2023-04-17T02:35:37.422Z,10.62
2023-04-17T02:36:37.374Z,10.62
2023-04-17T02:37:37.392Z,10.60
2023-04-17T02:38:37.333Z,10.63
2023-04-17T02:39:37.395Z,10.62
2023-04-17T02:40:37.356Z,10.62
2023-04-17T02:41:37.348Z,10.62
2023-04-17T02:42:37.341Z,10.63
2023-04-17T02:43:37.334Z,10.63
2023-04-17T02:44:37.280Z,10.63
2023-04-17T02:45:37.295Z,10.62
2023-04-17T02:46:37.329Z,10.60
2023-04-17T02:47:37.300Z,10.62
2023-04-17T02:48:37.244Z,10.63
2023-04-17T02:49:37.217Z,10.63
2023-04-17T02:50:37.195Z,10.60
2023-04-17T02:51:37.225Z,10.62
2023-04-17T02:52:37.219Z,10.62
2023-04-17T02:53:37.185Z,10.63
2023-04-17T02:54:37.156Z,10.63
2023-04-17T02:55:37.151Z,10.63
2023-04-17T02:56:37.145Z,10.65
2023-04-17T02:57:37.132Z,10.65
2023-04-17T02:58:37.135Z,10.65
2023-04-17T02:59:37.161Z,10.65
2023-04-17T03:00:37.164Z,10.63
2023-04-17T03:01:37.066Z,10.65
2023-04-17T03:02:37.251Z,10.62
2023-04-17T03:03:37.156Z,10.63
2023-04-17T03:04:37.048Z,10.60
2023-04-17T03:05:37.033Z,10.57
2023-04-17T03:06:36.996Z,10.58
2023-04-17T03:07:36.979Z,10.58
2023-04-17T03:08:36.996Z,10.57
2023-04-17T03:09:37.020Z,10.55
2023-04-17T03:10:37.003Z,10.55
2023-04-17T03:11:36.945Z,10.54
2023-04-17T03:12:36.972Z,10.54
2023-04-17T03:13:36.898Z,10.54
2023-04-17T03:14:36.908Z,10.54
2023-04-17T03:15:36.913Z,10.54
2023-04-17T03:16:36.922Z,10.52
2023-04-17T03:17:36.928Z,10.54
2023-04-17T03:18:36.861Z,10.54
2023-04-17T03:19:36.854Z,10.55
2023-04-17T03:20:36.845Z,10.54
2023-04-17T03:21:36.810Z,10.54
2023-04-17T03:22:36.832Z,10.55
2023-04-17T03:23:36.798Z,10.54
2023-04-17T03:24:36.777Z,10.52
2023-04-17T03:25:36.767Z,10.52
2023-04-17T03:26:36.771Z,10.54
2023-04-17T03:27:36.780Z,10.52
2023-04-17T03:28:36.751Z,10.54
2023-04-17T03:29:36.742Z,10.54
2023-04-17T03:30:36.696Z,10.54
2023-04-17T03:31:36.728Z,10.54
2023-04-17T03:32:36.726Z,10.54
2023-04-17T03:33:36.674Z,10.51
2023-04-17T03:34:36.677Z,10.51
2023-04-17T03:35:36.651Z,10.54
2023-04-17T03:36:36.661Z,10.54
2023-04-17T03:37:36.624Z,10.52
2023-04-17T03:38:36.608Z,10.52
2023-04-17T03:39:36.580Z,10.51
2023-04-17T03:40:36.579Z,10.51
2023-04-17T03:41:36.554Z,10.51
2023-04-17T03:42:36.586Z,10.49
2023-04-17T03:43:36.544Z,10.51
2023-04-17T03:44:36.520Z,10.51
2023-04-17T03:45:36.572Z,10.51
2023-04-17T03:46:36.483Z,10.49
2023-04-17T03:47:36.547Z,10.47
2023-04-17T03:48:36.497Z,10.49
2023-04-17T03:49:36.508Z,10.51
2023-04-17T03:50:36.464Z,10.52
2023-04-17T03:51:36.418Z,10.51
2023-04-17T03:52:36.434Z,10.49
2023-04-17T03:53:36.417Z,10.49
2023-04-17T03:54:36.417Z,10.49
2023-04-17T03:55:36.386Z,10.49
2023-04-17T03:56:36.384Z,10.49
2023-04-17T03:57:36.362Z,10.51
2023-04-17T03:58:36.327Z,10.49
2023-04-17T03:59:36.379Z,10.47
2023-04-17T04:00:36.346Z,10.49
2023-04-17T04:01:36.270Z,10.47
2023-04-17T04:02:36.433Z,10.46
2023-04-17T04:03:36.487Z,10.46
2023-04-17T04:04:36.395Z,10.44
2023-04-17T04:05:36.246Z,10.44
2023-04-17T04:06:36.239Z,10.47
2023-04-17T04:07:36.218Z,10.46
2023-04-17T04:08:36.229Z,10.44
2023-04-17T04:09:36.234Z,10.44
2023-04-17T04:10:36.176Z,10.39
2023-04-17T04:11:36.148Z,10.42
2023-04-17T04:12:36.191Z,10.39
2023-04-17T04:13:36.133Z,10.38
2023-04-17T04:14:36.160Z,10.38
2023-04-17T04:15:36.156Z,10.35
2023-04-17T04:16:36.275Z,10.36
2023-04-17T04:17:36.151Z,10.34
2023-04-17T04:18:36.066Z,10.34
2023-04-17T04:19:36.117Z,10.34
2023-04-17T04:20:36.076Z,10.34
2023-04-17T04:21:36.021Z,10.34
2023-04-17T04:22:36.092Z,10.34
2023-04-17T04:23:35.985Z,10.32
2023-04-17T04:24:36.011Z,10.32
2023-04-17T04:25:35.977Z,10.31
2023-04-17T04:26:35.982Z,10.32
2023-04-17T04:27:35.957Z,10.31
2023-04-17T04:28:35.978Z,10.29
2023-04-17T04:29:35.948Z,10.29
2023-04-17T04:30:35.949Z,10.31
2023-04-17T04:31:35.940Z,10.29
2023-04-17T04:32:35.982Z,10.29
2023-04-17T04:33:35.875Z,10.29
2023-04-17T04:34:35.893Z,10.29
2023-04-17T04:35:36.299Z,10.31
2023-04-17T04:36:35.831Z,10.31
2023-04-17T04:37:35.822Z,10.29
2023-04-17T04:38:35.815Z,10.29
2023-04-17T04:39:35.807Z,10.26
2023-04-17T04:40:35.778Z,10.28
2023-04-17T04:41:35.805Z,10.28
2023-04-17T04:42:35.801Z,10.25
2023-04-17T04:43:35.762Z,10.26
2023-04-17T04:44:35.751Z,10.25
2023-04-17T04:45:35.717Z,10.25
2023-04-17T04:46:35.768Z,10.28
2023-04-17T04:47:35.761Z,10.25
2023-04-17T04:48:35.712Z,10.28
2023-04-17T04:49:35.724Z,10.28
2023-04-17T04:50:35.659Z,10.26
2023-04-17T04:51:35.689Z,10.28
2023-04-17T04:52:35.768Z,10.28
2023-04-17T04:53:35.613Z,10.26
2023-04-17T04:54:35.628Z,10.24
2023-04-17T04:55:35.613Z,10.24
2023-04-17T04:56:35.605Z,10.24
2023-04-17T04:57:35.586Z,10.22
2023-04-17T04:58:35.562Z,10.20
2023-04-17T04:59:37.907Z,10.20
2023-04-17T05:00:35.545Z,10.20
2023-04-17T05:01:35.659Z,10.22
2023-04-17T05:02:35.715Z,10.20
2023-04-17T05:03:35.594Z,10.18
2023-04-17T05:04:35.599Z,10.17
2023-04-17T05:05:35.489Z,10.17
2023-04-17T05:06:35.497Z,10.17
2023-04-17T05:07:35.446Z,10.17
2023-04-17T05:08:35.461Z,10.17
2023-04-17T05:09:35.464Z,10.18
2023-04-17T05:10:35.462Z,10.17
2023-04-17T05:11:35.417Z,10.18
2023-04-17T05:12:35.416Z,10.17
2023-04-17T05:13:35.391Z,10.16
2023-04-17T05:14:35.376Z,10.18
2023-04-17T05:15:35.367Z,10.20
2023-04-17T05:16:35.399Z,10.18
2023-04-17T05:17:35.358Z,10.17
2023-04-17T05:18:35.290Z,10.18
2023-04-17T05:19:35.335Z,10.18
2023-04-17T05:20:35.309Z,10.20
2023-04-17T05:21:35.252Z,10.24
2023-04-17T05:22:35.264Z,10.24
2023-04-17T05:23:35.248Z,10.22
2023-04-17T05:24:35.288Z,10.22
2023-04-17T05:25:35.204Z,10.22
2023-04-17T05:26:35.239Z,10.20
2023-04-17T05:27:35.167Z,10.20
2023-04-17T05:28:35.170Z,10.20
2023-04-17T05:29:35.224Z,10.20
2023-04-17T05:30:35.215Z,10.20
2023-04-17T05:31:35.189Z,10.18
2023-04-17T05:32:35.176Z,10.20
2023-04-17T05:33:35.125Z,10.18
2023-04-17T05:34:35.137Z,10.22
2023-04-17T05:35:35.117Z,10.20
2023-04-17T05:36:35.103Z,10.18
2023-04-17T05:37:35.064Z,10.17
2023-04-17T05:38:35.061Z,10.18
2023-04-17T05:39:35.070Z,10.20
2023-04-17T05:40:35.017Z,10.20
2023-04-17T05:41:35.019Z,10.18
2023-04-17T05:42:35.054Z,10.17
2023-04-17T05:43:34.990Z,10.18
2023-04-17T05:44:34.986Z,10.18
2023-04-17T05:45:35.017Z,10.20
2023-04-17T05:46:34.963Z,10.18
2023-04-17T05:47:34.980Z,10.20
2023-04-17T05:48:34.916Z,10.17
2023-04-17T05:49:34.987Z,10.20
2023-04-17T05:50:34.908Z,10.20
2023-04-17T05:51:34.884Z,10.20
2023-04-17T05:52:35.012Z,10.22
2023-04-17T05:53:34.849Z,10.25
2023-04-17T05:54:34.855Z,10.24
2023-04-17T05:55:42.380Z,10.18
2023-04-17T05:56:34.833Z,10.18
2023-04-17T05:57:36.584Z,10.20
2023-04-17T05:58:36.522Z,10.22
2023-04-17T05:59:34.837Z,10.22
2023-04-17T06:00:34.825Z,10.24
2023-04-17T06:01:34.763Z,10.25
2023-04-17T06:02:34.860Z,10.25
2023-04-17T06:03:35.150Z,10.25
2023-04-17T06:04:34.989Z,10.20
2023-04-17T06:05:34.737Z,10.16
2023-04-17T06:06:34.703Z,10.17
2023-04-17T06:07:34.699Z,10.18
2023-04-17T06:08:34.695Z,10.17
2023-04-17T06:09:34.652Z,10.18
2023-04-17T06:10:34.659Z,10.17
2023-04-17T06:11:34.651Z,10.17
2023-04-17T06:12:34.606Z,10.16
2023-04-17T06:13:34.575Z,10.14
2023-04-17T06:14:34.614Z,10.13
2023-04-17T06:15:34.590Z,10.13
2023-04-17T06:16:34.635Z,10.13
2023-04-17T06:17:34.614Z,10.11
2023-04-17T06:18:34.547Z,10.13
2023-04-17T06:19:34.593Z,10.14
2023-04-17T06:20:34.501Z,10.16
2023-04-17T06:21:34.506Z,10.17
2023-04-17T06:22:34.545Z,10.17
2023-04-17T06:23:34.472Z,10.18
2023-04-17T06:24:34.539Z,10.22
2023-04-17T06:25:34.472Z,10.22
2023-04-17T06:26:34.466Z,10.24
2023-04-17T06:27:36.496Z,10.25
2023-04-17T06:28:34.431Z,10.24
2023-04-17T06:29:34.461Z,10.25
2023-04-17T06:30:34.519Z,10.22
2023-04-17T06:31:34.456Z,10.25
2023-04-17T06:32:34.418Z,10.24
2023-04-17T06:33:34.367Z,10.24
2023-04-17T06:34:34.368Z,10.24
2023-04-17T06:35:34.322Z,10.25
2023-04-17T06:36:34.327Z,10.26
2023-04-17T06:37:34.280Z,10.28
2023-04-17T06:38:34.308Z,10.31
2023-04-17T06:39:34.317Z,10.32
2023-04-17T06:40:34.319Z,10.34
2023-04-17T06:41:34.276Z,10.35
2023-04-17T06:42:34.231Z,10.36
2023-04-17T06:43:34.233Z,10.42
2023-04-17T06:44:34.218Z,10.42
2023-04-17T06:45:34.195Z,10.43
2023-04-17T06:46:34.262Z,10.43
2023-04-17T06:47:34.219Z,10.39
2023-04-17T06:48:34.167Z,10.39
2023-04-17T06:49:34.180Z,10.42
2023-04-17T06:50:34.132Z,10.43
2023-04-17T06:51:34.093Z,10.43
2023-04-17T06:52:34.162Z,10.43
2023-04-17T06:53:34.103Z,10.39
2023-04-17T06:54:34.376Z,10.39
2023-04-17T06:55:34.079Z,10.42
2023-04-17T06:56:34.083Z,10.42
2023-04-17T06:57:34.088Z,10.39
2023-04-17T06:58:34.079Z,10.42
2023-04-17T06:59:34.035Z,10.44
2023-04-17T07:00:34.014Z,10.46
2023-04-17T07:01:34.058Z,10.46
2023-04-17T07:02:34.107Z,10.46
2023-04-17T07:03:34.150Z,10.46
2023-04-17T07:04:33.956Z,10.46
2023-04-17T07:05:33.987Z,10.43
2023-04-17T07:06:33.950Z,10.42
2023-04-17T07:07:33.992Z,10.42
2023-04-17T07:08:33.870Z,10.42
2023-04-17T07:09:34.391Z,10.39
2023-04-17T07:10:34.199Z,10.42
2023-04-17T07:11:33.913Z,10.43
2023-04-17T07:12:33.911Z,10.44
2023-04-17T07:13:33.840Z,10.46
2023-04-17T07:14:33.817Z,10.44
2023-04-17T07:15:33.822Z,10.47
2023-04-17T07:16:34.001Z,10.46
2023-04-17T07:17:33.864Z,10.49
2023-04-17T07:18:33.763Z,10.51
2023-04-17T07:19:34.106Z,10.54
2023-04-17T07:20:33.789Z,10.54
2023-04-17T07:21:33.758Z,10.55
2023-04-17T07:22:33.697Z,10.54
2023-04-17T07:23:33.720Z,10.54
2023-04-17T07:24:33.693Z,10.54
2023-04-17T07:25:33.674Z,10.57
2023-04-17T07:26:33.632Z,10.58
2023-04-17T07:27:33.671Z,10.63
2023-04-17T07:28:33.647Z,10.63
2023-04-17T07:29:33.650Z,10.66
2023-04-17T07:30:33.603Z,10.68
2023-04-17T07:31:33.632Z,10.69
2023-04-17T07:32:33.684Z,10.68
2023-04-17T07:33:33.595Z,10.66
2023-04-17T07:34:33.611Z,10.68
2023-04-17T07:35:33.660Z,10.66
2023-04-17T07:36:33.555Z,10.66
2023-04-17T07:37:33.529Z,10.63
2023-04-17T07:38:34.475Z,10.63
2023-04-17T07:39:33.548Z,10.62
2023-04-17T07:40:33.519Z,10.63
2023-04-17T07:41:33.493Z,10.65
2023-04-17T07:42:33.438Z,10.65
2023-04-17T07:43:33.458Z,10.69
2023-04-17T07:44:33.423Z,10.70
2023-04-17T07:45:33.449Z,10.69
2023-04-17T07:46:33.460Z,10.65
2023-04-17T07:47:33.410Z,10.60
2023-04-17T07:48:33.410Z,10.60
2023-04-17T07:49:33.403Z,10.60
2023-04-17T07:50:33.346Z,10.63
2023-04-17T07:51:33.547Z,10.65
2023-04-17T07:52:33.327Z,10.65
2023-04-17T07:53:33.389Z,10.66
2023-04-17T07:54:33.334Z,10.66
2023-04-17T07:55:33.344Z,10.69
2023-04-17T07:56:33.323Z,10.72
2023-04-17T07:57:33.307Z,10.73
2023-04-17T07:58:33.286Z,10.76
2023-04-17T07:59:33.304Z,10.75
2023-04-17T08:00:33.280Z,10.73
2023-04-17T08:01:33.274Z,10.72
2023-04-17T08:02:33.324Z,10.72
2023-04-17T08:03:33.566Z,10.76
2023-04-17T08:04:33.819Z,10.78
2023-04-17T08:05:33.318Z,10.84
2023-04-17T08:06:33.169Z,10.86
2023-04-17T08:07:33.210Z,10.88
2023-04-17T08:08:33.147Z,10.93
2023-04-17T08:09:33.141Z,10.94
2023-04-17T08:10:33.100Z,10.95
2023-04-17T08:11:42.759Z,10.94
2023-04-17T08:12:34.116Z,10.94
2023-04-17T08:13:33.048Z,10.95
2023-04-17T08:14:33.046Z,10.94
2023-04-17T08:15:33.083Z,10.99
2023-04-17T08:16:33.044Z,11.02
2023-04-17T08:17:33.032Z,11.05
2023-04-17T08:18:32.983Z,11.06
2023-04-17T08:19:33.014Z,11.08
2023-04-17T08:20:32.994Z,11.09
2023-04-17T08:21:32.984Z,11.09
2023-04-17T08:22:32.967Z,11.16
2023-04-17T08:23:32.956Z,11.20
2023-04-17T08:24:32.954Z,11.26
2023-04-17T08:25:32.936Z,11.27
2023-04-17T08:26:32.906Z,11.30
2023-04-17T08:27:32.878Z,11.35
2023-04-17T08:28:32.848Z,11.39
2023-04-17T08:29:32.897Z,11.44
2023-04-17T08:30:32.852Z,11.51
2023-04-17T08:31:32.871Z,11.54
2023-04-17T08:32:32.842Z,11.60
2023-04-17T08:33:32.847Z,11.67
2023-04-17T08:34:32.812Z,11.74
2023-04-17T08:35:32.831Z,11.72
2023-04-17T08:36:32.756Z,11.69
2023-04-17T08:37:32.746Z,11.69
2023-04-17T08:38:32.769Z,11.69
2023-04-17T08:39:32.721Z,11.69
2023-04-17T08:40:32.765Z,11.72
2023-04-17T08:41:32.720Z,11.70
2023-04-17T08:42:32.705Z,11.74
2023-04-17T08:43:32.662Z,11.75
2023-04-17T08:44:32.716Z,11.79
2023-04-17T08:45:32.715Z,11.78
2023-04-17T08:46:32.636Z,11.78
2023-04-17T08:47:32.710Z,11.74
2023-04-17T08:48:32.584Z,11.75
2023-04-17T08:49:32.626Z,11.81
2023-04-17T08:50:32.610Z,11.87
2023-04-17T08:51:32.568Z,11.93
2023-04-17T08:52:32.548Z,12.00
2023-04-17T08:53:32.578Z,12.04
2023-04-17T08:54:32.520Z,12.03
2023-04-17T08:55:32.590Z,12.03
2023-04-17T08:56:32.507Z,12.04
2023-04-17T08:57:32.568Z,12.05
2023-04-17T08:58:32.463Z,12.07
2023-04-17T08:59:32.496Z,12.05
2023-04-17T09:00:32.498Z,12.08
2023-04-17T09:01:32.516Z,12.12
2023-04-17T09:02:32.510Z,12.11
2023-04-17T09:03:32.538Z,12.08
2023-04-17T09:04:32.599Z,12.07
2023-04-17T09:05:32.385Z,12.03
2023-04-17T09:06:32.400Z,11.98
2023-04-17T09:07:32.503Z,11.93
2023-04-17T09:08:32.349Z,11.85
2023-04-17T09:09:32.415Z,11.79
2023-04-17T09:10:32.403Z,11.77
2023-04-17T09:11:32.358Z,11.77
2023-04-17T09:12:32.310Z,11.77
2023-04-17T09:13:32.292Z,11.81
2023-04-17T09:14:32.294Z,11.85
2023-04-17T09:15:32.327Z,11.87
2023-04-17T09:16:32.303Z,11.93
2023-04-17T09:17:32.258Z,11.93
2023-04-17T09:18:32.336Z,11.97
2023-04-17T09:19:34.584Z,12.03
2023-04-17T09:20:32.216Z,12.11
2023-04-17T09:21:32.200Z,12.15
2023-04-17T09:22:32.164Z,12.22
2023-04-17T09:23:32.182Z,12.26
2023-04-17T09:24:32.170Z,12.31
2023-04-17T09:25:32.157Z,12.33
2023-04-17T09:26:32.161Z,12.38
2023-04-17T09:27:32.117Z,12.41
2023-04-17T09:28:32.112Z,12.51
2023-04-17T09:29:32.167Z,12.55
2023-04-17T09:30:32.116Z,12.55
2023-04-17T09:31:32.340Z,12.55
2023-04-17T09:32:32.109Z,12.54
2023-04-17T09:33:32.064Z,12.58
2023-04-17T09:34:32.055Z,12.61
2023-04-17T09:35:32.053Z,12.66
2023-04-17T09:36:32.129Z,12.67
2023-04-17T09:37:32.001Z,12.74
2023-04-17T09:38:32.006Z,12.79
2023-04-17T09:39:32.055Z,12.70
2023-04-17T09:40:31.969Z,12.73
2023-04-17T09:41:31.981Z,12.81
2023-04-17T09:42:31.961Z,12.92
2023-04-17T09:43:31.932Z,13.06
2023-04-17T09:44:31.886Z,13.17
2023-04-17T09:45:31.888Z,13.28
2023-04-17T09:46:31.921Z,13.28
2023-04-17T09:47:31.897Z,13.22
2023-04-17T09:48:31.834Z,13.27
2023-04-17T09:49:31.873Z,13.38
2023-04-17T09:50:31.850Z,13.50
2023-04-17T09:51:31.844Z,13.50
2023-04-17T09:52:31.823Z,13.48
2023-04-17T09:53:31.767Z,13.48
2023-04-17T09:54:31.808Z,13.54
2023-04-17T09:55:31.766Z,13.57
2023-04-17T09:56:31.756Z,13.66
2023-04-17T09:57:31.739Z,13.72
2023-04-17T09:58:31.735Z,13.68
2023-04-17T09:59:31.802Z,13.65
2023-04-17T10:00:31.776Z,13.53
2023-04-17T10:01:31.919Z,13.53
2023-04-17T10:02:31.928Z,13.54
2023-04-17T10:03:33.077Z,13.50
2023-04-17T10:04:31.684Z,13.41
2023-04-17T10:05:31.627Z,13.27
2023-04-17T10:06:31.605Z,13.31
2023-04-17T10:07:31.619Z,13.48
2023-04-17T10:08:31.596Z,13.65
2023-04-17T10:09:31.679Z,13.80
2023-04-17T10:10:31.577Z,13.79
2023-04-17T10:11:31.562Z,13.79
2023-04-17T10:12:32.914Z,13.76
2023-04-17T10:13:31.506Z,13.72
2023-04-17T10:14:31.550Z,13.65
2023-04-17T10:15:31.519Z,13.68
2023-04-17T10:16:31.487Z,13.72
2023-04-17T10:17:31.875Z,13.69
2023-04-17T10:18:31.478Z,13.62
2023-04-17T10:19:31.487Z,13.59
2023-04-17T10:20:31.439Z,13.69
2023-04-17T10:21:31.457Z,13.81
2023-04-17T10:22:31.495Z,13.84
2023-04-17T10:23:32.206Z,13.84
2023-04-17T10:24:31.385Z,13.90
2023-04-17T10:25:31.396Z,13.96
2023-04-17T10:26:31.340Z,14.04
2023-04-17T10:27:31.381Z,14.06
2023-04-17T10:28:31.325Z,14.12
2023-04-17T10:29:31.364Z,14.23
2023-04-17T10:30:31.296Z,14.26
2023-04-17T10:31:31.320Z,14.20
2023-04-17T10:32:31.300Z,14.20
2023-04-17T10:33:31.288Z,14.24
2023-04-17T10:34:31.248Z,14.27
2023-04-17T10:35:31.224Z,14.21
2023-04-17T10:36:31.205Z,14.29
2023-04-17T10:37:31.201Z,14.30
2023-04-17T10:38:31.289Z,14.23
2023-04-17T10:39:31.325Z,14.04
2023-04-17T10:40:31.248Z,13.90
2023-04-17T10:41:31.262Z,13.90
2023-04-17T10:42:31.158Z,13.96
2023-04-17T10:43:31.218Z,14.05
2023-04-17T10:44:31.138Z,14.06
2023-04-17T10:45:31.142Z,14.06
2023-04-17T10:46:31.282Z,14.08
2023-04-17T10:47:31.098Z,14.09
2023-04-17T10:48:31.130Z,14.09
2023-04-17T10:49:31.065Z,14.13
2023-04-17T10:50:31.041Z,14.21
2023-04-17T10:51:31.031Z,14.26
2023-04-17T10:52:31.016Z,14.29
2023-04-17T10:53:30.990Z,14.30
2023-04-17T10:54:31.103Z,14.30
2023-04-17T10:55:30.965Z,14.31
2023-04-17T10:56:31.012Z,14.34
2023-04-17T10:57:30.967Z,14.24
2023-04-17T10:58:31.502Z,14.26
2023-04-17T10:59:30.923Z,14.20
2023-04-17T11:00:30.924Z,14.16
2023-04-17T11:01:31.040Z,14.21
2023-04-17T11:02:30.988Z,14.27
2023-04-17T11:03:30.920Z,14.23
2023-04-17T11:04:31.190Z,14.23
2023-04-17T11:05:30.861Z,14.30
2023-04-17T11:06:30.852Z,14.45
2023-04-17T11:07:30.838Z,14.56
2023-04-17T11:08:30.782Z,14.64
2023-04-17T11:09:30.808Z,14.74
2023-04-17T11:10:30.824Z,14.79
2023-04-17T11:11:43.603Z,14.83
2023-04-17T11:12:31.765Z,14.83
2023-04-17T11:13:30.806Z,14.79
2023-04-17T11:14:30.763Z,14.75
2023-04-17T11:15:30.728Z,14.69
2023-04-17T11:16:30.785Z,14.67
2023-04-17T11:17:30.710Z,14.71
2023-04-17T11:18:30.675Z,14.78
2023-04-17T11:19:30.707Z,14.75
2023-04-17T11:20:30.692Z,14.79
2023-04-17T11:21:30.629Z,14.85
2023-04-17T11:22:30.634Z,14.87
2023-04-17T11:23:30.588Z,14.86
2023-04-17T11:24:30.639Z,14.87
2023-04-17T11:25:30.582Z,14.90
2023-04-17T11:26:30.610Z,14.86
2023-04-17T11:27:30.576Z,14.87
2023-04-17T11:28:30.542Z,14.91
2023-04-17T11:29:30.538Z,14.95
2023-04-17T11:30:30.553Z,14.97
2023-04-17T11:31:30.637Z,14.98
2023-04-17T11:32:30.521Z,15.01
2023-04-17T11:33:30.492Z,15.03
2023-04-17T11:34:30.532Z,15.09
2023-04-17T11:35:30.498Z,15.13
2023-04-17T11:36:30.436Z,15.12
2023-04-17T11:37:30.429Z,15.15
2023-04-17T11:38:30.404Z,15.16
2023-04-17T11:39:30.440Z,15.16
2023-04-17T11:40:30.399Z,15.19
2023-04-17T11:41:30.359Z,15.27
2023-04-17T11:42:30.360Z,15.30
2023-04-17T11:43:30.335Z,15.28
2023-04-17T11:44:30.359Z,15.30
2023-04-17T11:45:30.334Z,15.31
2023-04-17T11:46:30.346Z,15.28
2023-04-17T11:47:30.323Z,15.28
2023-04-17T11:48:30.323Z,15.30
2023-04-17T11:49:30.394Z,15.33
2023-04-17T11:50:30.256Z,15.35
2023-04-17T11:51:30.244Z,15.34
2023-04-17T11:52:30.247Z,15.34
2023-04-17T11:53:30.203Z,15.34
2023-04-17T11:54:30.279Z,15.37
2023-04-17T11:56:22.930Z,15.41
2023-04-17T11:57:22.965Z,15.43
2023-04-17T11:58:22.881Z,15.44
2023-04-17T11:59:22.915Z,15.43
2023-04-17T12:00:22.881Z,15.43
2023-04-17T12:01:22.850Z,15.41
2023-04-17T12:02:22.930Z,15.44
2023-04-17T12:03:22.942Z,15.48
2023-04-17T12:04:22.994Z,15.48
2023-04-17T12:05:23.014Z,15.46
2023-04-17T12:06:22.794Z,15.49
2023-04-17T12:07:22.800Z,15.51
2023-04-17T12:08:22.755Z,15.48
2023-04-17T12:09:22.803Z,15.35
2023-04-17T12:10:22.754Z,15.22
2023-04-17T12:11:22.733Z,15.23
2023-04-17T12:12:22.712Z,15.28
2023-04-17T12:13:22.722Z,15.30
2023-04-17T12:14:24.100Z,15.31
2023-04-17T12:15:22.729Z,15.30
2023-04-17T12:16:22.690Z,15.30
2023-04-17T12:17:22.729Z,15.30
2023-04-17T12:18:22.669Z,15.31
2023-04-17T12:19:22.639Z,15.34
2023-04-17T12:20:24.300Z,15.38
2023-04-17T12:21:22.630Z,15.51
2023-04-17T12:22:22.633Z,15.59
2023-04-17T12:23:22.610Z,15.62
2023-04-17T12:24:22.587Z,15.70
2023-04-17T12:25:22.581Z,15.77
2023-04-17T12:26:22.550Z,15.86
2023-04-17T12:27:22.547Z,15.74
2023-04-17T12:28:22.524Z,15.73
2023-04-17T12:29:36.252Z,15.71
2023-04-17T12:30:23.493Z,15.68
2023-04-17T12:31:22.473Z,15.70
2023-04-17T12:32:22.463Z,15.68
2023-04-17T12:33:22.467Z,15.68
2023-04-17T12:34:22.471Z,15.70
2023-04-17T12:35:22.443Z,15.60
2023-04-17T12:36:22.440Z,15.58
2023-04-17T12:37:22.393Z,15.46
2023-04-17T12:38:22.356Z,15.30
2023-04-17T12:39:22.421Z,15.27
2023-04-17T12:40:24.482Z,15.22
2023-04-17T12:41:22.350Z,15.33
2023-04-17T12:42:22.313Z,15.41
2023-04-17T12:43:22.327Z,15.43
2023-04-17T12:44:22.309Z,15.44
2023-04-17T12:45:22.371Z,15.38
2023-04-17T12:46:22.392Z,15.38
2023-04-17T12:47:22.332Z,15.43
2023-04-17T12:48:22.278Z,15.52
2023-04-17T12:49:22.234Z,15.62
2023-04-17T12:50:22.217Z,15.68
2023-04-17T12:51:22.200Z,15.77
2023-04-17T12:52:22.211Z,15.77
2023-04-17T12:53:22.194Z,15.76